sensor_id;sensor_type;location;lat;lon;timestamp;temperature;humidity
18321;DHT22;54904;54.350;18.664;2023-06-14T00:00:51;19.80;76.80
18321;DHT22;54904;54.350;18.664;2023-06-14T00:03:21;19.80;76.90
18321;DHT22;54904;54.350;18.664;2023-06-14T00:06:01;19.80;76.90
18321;DHT22;54904;54.350;18.664;2023-06-14T00:08:28;19.80;77.00
18321;DHT22;54904;54.350;18.664;2023-06-14T00:10:57;19.80;77.00
18321;DHT22;54904;54.350;18.664;2023-06-14T00:13:32;19.70;76.80
18321;DHT22;54904;54.350;18.664;2023-06-14T00:16:06;19.70;76.80
18321;DHT22;54904;54.350;18.664;2023-06-14T00:19:14;19.80;76.90
18321;DHT22;54904;54.350;18.664;2023-06-14T00:21:57;19.70;76.80
18321;DHT22;54904;54.350;18.664;2023-06-14T00:24:30;19.70;76.90
18321;DHT22;54904;54.350;18.664;2023-06-14T00:27:14;19.70;77.10
18321;DHT22;54904;54.350;18.664;2023-06-14T00:29:51;19.70;77.30
18321;DHT22;54904;54.350;18.664;2023-06-14T00:32:21;19.70;77.50
18321;DHT22;54904;54.350;18.664;2023-06-14T00:34:58;19.60;77.70
18321;DHT22;54904;54.350;18.664;2023-06-14T00:37:47;19.60;78.10
18321;DHT22;54904;54.350;18.664;2023-06-14T00:40:19;19.60;78.30
18321;DHT22;54904;54.350;18.664;2023-06-14T00:42:51;19.60;78.60
18321;DHT22;54904;54.350;18.664;2023-06-14T00:45:39;19.60;78.90
18321;DHT22;54904;54.350;18.664;2023-06-14T00:48:23;19.60;79.10
18321;DHT22;54904;54.350;18.664;2023-06-14T00:51:12;19.60;79.30
18321;DHT22;54904;54.350;18.664;2023-06-14T00:53:44;19.60;79.50
18321;DHT22;54904;54.350;18.664;2023-06-14T00:56:31;19.60;79.70
18321;DHT22;54904;54.350;18.664;2023-06-14T00:59:11;19.60;79.80
18321;DHT22;54904;54.350;18.664;2023-06-14T01:01:56;19.70;80.10
18321;DHT22;54904;54.350;18.664;2023-06-14T01:04:36;19.70;80.20
18321;DHT22;54904;54.350;18.664;2023-06-14T01:07:20;19.70;80.30
18321;DHT22;54904;54.350;18.664;2023-06-14T01:10:04;19.70;80.30
18321;DHT22;54904;54.350;18.664;2023-06-14T01:12:55;19.60;80.10
18321;DHT22;54904;54.350;18.664;2023-06-14T01:15:39;19.60;80.10
18321;DHT22;54904;54.350;18.664;2023-06-14T01:18:15;19.60;80.10
18321;DHT22;54904;54.350;18.664;2023-06-14T01:20:47;19.60;80.30
18321;DHT22;54904;54.350;18.664;2023-06-14T01:23:35;19.60;80.50
18321;DHT22;54904;54.350;18.664;2023-06-14T01:26:02;19.60;80.80
18321;DHT22;54904;54.350;18.664;2023-06-14T01:28:40;19.50;80.80
18321;DHT22;54904;54.350;18.664;2023-06-14T01:31:35;19.60;81.20
18321;DHT22;54904;54.350;18.664;2023-06-14T01:34:07;19.50;81.30
18321;DHT22;54904;54.350;18.664;2023-06-14T01:36:36;19.50;81.50
18321;DHT22;54904;54.350;18.664;2023-06-14T01:42:18;19.50;81.90
18321;DHT22;54904;54.350;18.664;2023-06-14T01:44:56;19.50;82.20
18321;DHT22;54904;54.350;18.664;2023-06-14T01:47:48;19.40;82.40
18321;DHT22;54904;54.350;18.664;2023-06-14T01:50:45;19.40;82.80
18321;DHT22;54904;54.350;18.664;2023-06-14T01:53:46;19.40;83.00
18321;DHT22;54904;54.350;18.664;2023-06-14T01:59:27;19.40;83.20
18321;DHT22;54904;54.350;18.664;2023-06-14T02:02:08;19.40;83.30
18321;DHT22;54904;54.350;18.664;2023-06-14T02:04:41;19.40;83.40
18321;DHT22;54904;54.350;18.664;2023-06-14T02:07:14;19.40;83.40
18321;DHT22;54904;54.350;18.664;2023-06-14T02:09:47;19.40;83.50
18321;DHT22;54904;54.350;18.664;2023-06-14T02:12:20;19.40;83.60
18321;DHT22;54904;54.350;18.664;2023-06-14T02:15:07;19.40;83.60
18321;DHT22;54904;54.350;18.664;2023-06-14T02:18:12;19.40;83.60
18321;DHT22;54904;54.350;18.664;2023-06-14T02:20:58;19.30;83.60
18321;DHT22;54904;54.350;18.664;2023-06-14T02:23:44;19.30;83.90
18321;DHT22;54904;54.350;18.664;2023-06-14T02:26:20;19.20;84.00
18321;DHT22;54904;54.350;18.664;2023-06-14T02:28:57;19.30;84.30
18321;DHT22;54904;54.350;18.664;2023-06-14T02:31:26;19.30;84.50
18321;DHT22;54904;54.350;18.664;2023-06-14T02:33:59;19.30;84.70
18321;DHT22;54904;54.350;18.664;2023-06-14T02:36:32;19.30;84.90
18321;DHT22;54904;54.350;18.664;2023-06-14T02:39:00;19.30;85.20
18321;DHT22;54904;54.350;18.664;2023-06-14T02:41:32;19.20;85.30
18321;DHT22;54904;54.350;18.664;2023-06-14T02:44:04;19.20;85.60
18321;DHT22;54904;54.350;18.664;2023-06-14T02:46:34;19.20;85.70
18321;DHT22;54904;54.350;18.664;2023-06-14T02:49:13;19.20;85.80
18321;DHT22;54904;54.350;18.664;2023-06-14T02:51:44;19.20;85.80
18321;DHT22;54904;54.350;18.664;2023-06-14T02:54:20;19.20;86.00
18321;DHT22;54904;54.350;18.664;2023-06-14T02:56:52;19.20;86.10
18321;DHT22;54904;54.350;18.664;2023-06-14T02:59:20;19.20;86.20
18321;DHT22;54904;54.350;18.664;2023-06-14T03:01:54;19.20;86.30
18321;DHT22;54904;54.350;18.664;2023-06-14T03:04:22;19.30;86.60
18321;DHT22;54904;54.350;18.664;2023-06-14T03:07:04;19.30;86.80
18321;DHT22;54904;54.350;18.664;2023-06-14T03:09:36;19.30;87.10
18321;DHT22;54904;54.350;18.664;2023-06-14T03:12:05;19.30;87.30
18321;DHT22;54904;54.350;18.664;2023-06-14T03:14:34;19.30;87.50
18321;DHT22;54904;54.350;18.664;2023-06-14T03:17:05;19.40;87.80
18321;DHT22;54904;54.350;18.664;2023-06-14T03:19:37;19.30;87.80
18321;DHT22;54904;54.350;18.664;2023-06-14T03:22:06;19.30;88.10
18321;DHT22;54904;54.350;18.664;2023-06-14T03:24:35;19.30;88.30
18321;DHT22;54904;54.350;18.664;2023-06-14T03:27:08;19.30;88.60
18321;DHT22;54904;54.350;18.664;2023-06-14T03:29:42;19.30;88.90
18321;DHT22;54904;54.350;18.664;2023-06-14T03:32:17;19.30;89.20
18321;DHT22;54904;54.350;18.664;2023-06-14T03:34:44;19.30;89.60
18321;DHT22;54904;54.350;18.664;2023-06-14T03:37:19;19.30;89.70
18321;DHT22;54904;54.350;18.664;2023-06-14T03:39:50;19.30;89.90
18321;DHT22;54904;54.350;18.664;2023-06-14T03:42:23;19.40;90.10
18321;DHT22;54904;54.350;18.664;2023-06-14T03:44:54;19.40;90.10
18321;DHT22;54904;54.350;18.664;2023-06-14T03:47:24;19.30;90.20
18321;DHT22;54904;54.350;18.664;2023-06-14T03:49:55;19.40;90.40
18321;DHT22;54904;54.350;18.664;2023-06-14T03:52:29;19.30;90.40
18321;DHT22;54904;54.350;18.664;2023-06-14T03:54:57;19.30;90.50
18321;DHT22;54904;54.350;18.664;2023-06-14T03:57:26;19.30;90.70
18321;DHT22;54904;54.350;18.664;2023-06-14T03:59:55;19.30;90.80
18321;DHT22;54904;54.350;18.664;2023-06-14T04:02:27;19.30;90.90
18321;DHT22;54904;54.350;18.664;2023-06-14T04:04:55;19.30;91.00
18321;DHT22;54904;54.350;18.664;2023-06-14T04:07:23;19.30;91.10
18321;DHT22;54904;54.350;18.664;2023-06-14T04:09:52;19.30;91.20
18321;DHT22;54904;54.350;18.664;2023-06-14T04:12:20;19.30;91.30
18321;DHT22;54904;54.350;18.664;2023-06-14T04:14:57;19.40;91.40
18321;DHT22;54904;54.350;18.664;2023-06-14T04:17:31;19.40;91.50
18321;DHT22;54904;54.350;18.664;2023-06-14T04:19:59;19.30;91.60
18321;DHT22;54904;54.350;18.664;2023-06-14T04:22:32;19.30;91.70
18321;DHT22;54904;54.350;18.664;2023-06-14T04:25:04;19.40;91.80
18321;DHT22;54904;54.350;18.664;2023-06-14T04:27:35;19.40;92.00
18321;DHT22;54904;54.350;18.664;2023-06-14T04:30:05;19.40;92.00
18321;DHT22;54904;54.350;18.664;2023-06-14T04:32:42;19.40;92.00
18321;DHT22;54904;54.350;18.664;2023-06-14T04:35:14;19.40;92.20
18321;DHT22;54904;54.350;18.664;2023-06-14T04:37:48;19.40;92.30
18321;DHT22;54904;54.350;18.664;2023-06-14T04:40:16;19.40;92.40
18321;DHT22;54904;54.350;18.664;2023-06-14T04:42:43;19.40;92.50
18321;DHT22;54904;54.350;18.664;2023-06-14T04:45:13;19.50;92.60
18321;DHT22;54904;54.350;18.664;2023-06-14T04:47:44;19.50;92.70
18321;DHT22;54904;54.350;18.664;2023-06-14T04:50:12;19.50;92.80
18321;DHT22;54904;54.350;18.664;2023-06-14T04:52:40;19.50;92.80
18321;DHT22;54904;54.350;18.664;2023-06-14T04:55:10;19.50;92.90
18321;DHT22;54904;54.350;18.664;2023-06-14T04:57:37;19.50;93.00
18321;DHT22;54904;54.350;18.664;2023-06-14T05:00:11;19.60;93.10
18321;DHT22;54904;54.350;18.664;2023-06-14T05:02:40;19.60;93.20
18321;DHT22;54904;54.350;18.664;2023-06-14T05:05:18;19.60;93.20
18321;DHT22;54904;54.350;18.664;2023-06-14T05:07:49;19.70;93.30
18321;DHT22;54904;54.350;18.664;2023-06-14T05:10:17;19.70;93.30
18321;DHT22;54904;54.350;18.664;2023-06-14T05:12:51;19.70;93.30
18321;DHT22;54904;54.350;18.664;2023-06-14T05:15:26;19.70;93.30
18321;DHT22;54904;54.350;18.664;2023-06-14T05:18:05;19.80;93.40
18321;DHT22;54904;54.350;18.664;2023-06-14T05:20:44;19.80;93.40
18321;DHT22;54904;54.350;18.664;2023-06-14T05:23:23;19.80;93.40
18321;DHT22;54904;54.350;18.664;2023-06-14T05:25:51;19.90;93.40
18321;DHT22;54904;54.350;18.664;2023-06-14T05:28:23;19.90;93.40
18321;DHT22;54904;54.350;18.664;2023-06-14T05:30:58;19.90;93.50
18321;DHT22;54904;54.350;18.664;2023-06-14T05:33:28;19.90;93.40
18321;DHT22;54904;54.350;18.664;2023-06-14T05:36:03;20.00;93.50
18321;DHT22;54904;54.350;18.664;2023-06-14T05:38:32;20.00;93.60
18321;DHT22;54904;54.350;18.664;2023-06-14T05:41:00;20.00;93.60
18321;DHT22;54904;54.350;18.664;2023-06-14T05:43:40;20.00;93.60
18321;DHT22;54904;54.350;18.664;2023-06-14T05:46:07;20.10;93.70
18321;DHT22;54904;54.350;18.664;2023-06-14T05:48:49;20.10;93.70
18321;DHT22;54904;54.350;18.664;2023-06-14T05:51:23;20.20;93.70
18321;DHT22;54904;54.350;18.664;2023-06-14T05:53:54;20.20;93.60
18321;DHT22;54904;54.350;18.664;2023-06-14T05:56:24;20.30;93.40
18321;DHT22;54904;54.350;18.664;2023-06-14T05:58:51;20.30;93.20
18321;DHT22;54904;54.350;18.664;2023-06-14T06:04:02;20.40;92.80
18321;DHT22;54904;54.350;18.664;2023-06-14T06:06:44;20.50;92.70
18321;DHT22;54904;54.350;18.664;2023-06-14T06:09:24;20.50;92.30
18321;DHT22;54904;54.350;18.664;2023-06-14T06:12:01;20.60;92.00
18321;DHT22;54904;54.350;18.664;2023-06-14T06:14:36;20.60;91.50
18321;DHT22;54904;54.350;18.664;2023-06-14T06:17:16;20.70;91.30
18321;DHT22;54904;54.350;18.664;2023-06-14T06:19:48;20.70;90.90
18321;DHT22;54904;54.350;18.664;2023-06-14T06:22:20;20.70;90.60
18321;DHT22;54904;54.350;18.664;2023-06-14T06:24:47;20.70;90.30
18321;DHT22;54904;54.350;18.664;2023-06-14T06:27:15;20.80;90.00
18321;DHT22;54904;54.350;18.664;2023-06-14T06:29:50;20.80;89.70
18321;DHT22;54904;54.350;18.664;2023-06-14T06:32:20;20.80;89.20
18321;DHT22;54904;54.350;18.664;2023-06-14T06:34:53;20.80;88.80
18321;DHT22;54904;54.350;18.664;2023-06-14T06:37:30;20.80;88.30
18321;DHT22;54904;54.350;18.664;2023-06-14T06:39:58;20.90;87.70
18321;DHT22;54904;54.350;18.664;2023-06-14T06:42:26;20.90;87.20
18321;DHT22;54904;54.350;18.664;2023-06-14T06:44:58;21.00;87.00
18321;DHT22;54904;54.350;18.664;2023-06-14T06:47:30;21.00;86.20
18321;DHT22;54904;54.350;18.664;2023-06-14T06:49:58;21.10;85.40
18321;DHT22;54904;54.350;18.664;2023-06-14T06:52:25;21.10;84.80
18321;DHT22;54904;54.350;18.664;2023-06-14T06:57:50;21.10;84.20
18321;DHT22;54904;54.350;18.664;2023-06-14T07:00:21;21.20;84.20
18321;DHT22;54904;54.350;18.664;2023-06-14T07:03:17;21.20;84.30
18321;DHT22;54904;54.350;18.664;2023-06-14T07:06:06;21.20;84.20
18321;DHT22;54904;54.350;18.664;2023-06-14T07:09:03;21.30;84.40
18321;DHT22;54904;54.350;18.664;2023-06-14T07:12:04;21.30;84.30
18321;DHT22;54904;54.350;18.664;2023-06-14T07:14:52;21.40;84.00
18321;DHT22;54904;54.350;18.664;2023-06-14T07:17:29;21.50;83.00
18321;DHT22;54904;54.350;18.664;2023-06-14T07:20:03;21.50;82.30
18321;DHT22;54904;54.350;18.664;2023-06-14T07:22:43;21.50;81.80
18321;DHT22;54904;54.350;18.664;2023-06-14T07:25:12;21.60;81.10
18321;DHT22;54904;54.350;18.664;2023-06-14T07:28:19;21.60;81.00
18321;DHT22;54904;54.350;18.664;2023-06-14T07:30:54;21.60;80.90
18321;DHT22;54904;54.350;18.664;2023-06-14T07:33:24;21.70;81.10
18321;DHT22;54904;54.350;18.664;2023-06-14T07:36:12;21.70;80.90
18321;DHT22;54904;54.350;18.664;2023-06-14T07:38:56;21.70;80.70
18321;DHT22;54904;54.350;18.664;2023-06-14T07:41:51;21.70;80.20
18321;DHT22;54904;54.350;18.664;2023-06-14T07:44:21;21.70;80.10
18321;DHT22;54904;54.350;18.664;2023-06-14T07:47:02;21.70;79.90
18321;DHT22;54904;54.350;18.664;2023-06-14T07:49:44;21.70;80.00
18321;DHT22;54904;54.350;18.664;2023-06-14T07:52:27;21.80;80.10
18321;DHT22;54904;54.350;18.664;2023-06-14T07:55:00;21.80;79.90
18321;DHT22;54904;54.350;18.664;2023-06-14T07:57:37;21.80;79.70
18321;DHT22;54904;54.350;18.664;2023-06-14T08:00:20;21.90;79.40
18321;DHT22;54904;54.350;18.664;2023-06-14T08:03:05;22.00;78.90
18321;DHT22;54904;54.350;18.664;2023-06-14T08:05:47;22.00;78.40
18321;DHT22;54904;54.350;18.664;2023-06-14T08:08:36;22.10;77.90
18321;DHT22;54904;54.350;18.664;2023-06-14T08:14:19;22.20;77.10
18321;DHT22;54904;54.350;18.664;2023-06-14T08:17:00;22.30;76.50
18321;DHT22;54904;54.350;18.664;2023-06-14T08:19:43;22.30;76.10
18321;DHT22;54904;54.350;18.664;2023-06-14T08:22:28;22.30;75.70
18321;DHT22;54904;54.350;18.664;2023-06-14T08:25:01;22.40;75.70
18321;DHT22;54904;54.350;18.664;2023-06-14T08:27:49;22.40;75.60
18321;DHT22;54904;54.350;18.664;2023-06-14T08:30:28;22.40;75.50
18321;DHT22;54904;54.350;18.664;2023-06-14T08:33:28;22.30;75.20
18321;DHT22;54904;54.350;18.664;2023-06-14T08:36:03;22.30;75.40
18321;DHT22;54904;54.350;18.664;2023-06-14T08:38:54;22.20;75.40
18321;DHT22;54904;54.350;18.664;2023-06-14T08:41:31;22.20;75.60
18321;DHT22;54904;54.350;18.664;2023-06-14T08:44:28;22.20;75.90
18321;DHT22;54904;54.350;18.664;2023-06-14T08:47:18;22.20;76.10
18321;DHT22;54904;54.350;18.664;2023-06-14T08:49:57;22.20;76.20
18321;DHT22;54904;54.350;18.664;2023-06-14T08:52:27;22.20;76.40
18321;DHT22;54904;54.350;18.664;2023-06-14T08:55:05;22.30;76.50
18321;DHT22;54904;54.350;18.664;2023-06-14T08:57:42;22.40;76.70
18321;DHT22;54904;54.350;18.664;2023-06-14T09:11:35;22.50;76.70
18321;DHT22;54904;54.350;18.664;2023-06-14T09:14:02;22.50;76.70
18321;DHT22;54904;54.350;18.664;2023-06-14T09:16:32;22.50;76.80
18321;DHT22;54904;54.350;18.664;2023-06-14T09:19:00;22.50;76.90
18321;DHT22;54904;54.350;18.664;2023-06-14T09:21:28;22.60;77.10
18321;DHT22;54904;54.350;18.664;2023-06-14T09:24:01;22.60;77.20
18321;DHT22;54904;54.350;18.664;2023-06-14T09:26:28;22.60;77.10
18321;DHT22;54904;54.350;18.664;2023-06-14T09:28:57;22.60;77.20
18321;DHT22;54904;54.350;18.664;2023-06-14T09:31:26;23.50;78.30
18321;DHT22;54904;54.350;18.664;2023-06-14T09:33:57;22.70;77.40
18321;DHT22;54904;54.350;18.664;2023-06-14T09:36:25;22.80;77.40
18321;DHT22;54904;54.350;18.664;2023-06-14T09:38:53;22.90;77.50
18321;DHT22;54904;54.350;18.664;2023-06-14T09:41:21;23.00;77.60
18321;DHT22;54904;54.350;18.664;2023-06-14T09:43:59;23.10;77.70
18321;DHT22;54904;54.350;18.664;2023-06-14T09:46:28;23.20;77.60
18321;DHT22;54904;54.350;18.664;2023-06-14T09:48:56;23.30;77.50
18321;DHT22;54904;54.350;18.664;2023-06-14T09:51:24;23.40;77.50
18321;DHT22;54904;54.350;18.664;2023-06-14T09:53:52;23.50;77.40
18321;DHT22;54904;54.350;18.664;2023-06-14T09:56:23;23.60;77.30
18321;DHT22;54904;54.350;18.664;2023-06-14T09:58:55;23.60;77.20
18321;DHT22;54904;54.350;18.664;2023-06-14T10:01:25;23.70;77.20
18321;DHT22;54904;54.350;18.664;2023-06-14T10:03:55;23.80;77.10
18321;DHT22;54904;54.350;18.664;2023-06-14T10:06:26;23.80;76.90
18321;DHT22;54904;54.350;18.664;2023-06-14T10:08:57;23.90;77.10
18321;DHT22;54904;54.350;18.664;2023-06-14T10:11:26;24.00;77.20
18321;DHT22;54904;54.350;18.664;2023-06-14T10:13:55;24.10;77.40
18321;DHT22;54904;54.350;18.664;2023-06-14T10:16:31;24.20;77.50
18321;DHT22;54904;54.350;18.664;2023-06-14T10:19:06;24.30;77.50
18321;DHT22;54904;54.350;18.664;2023-06-14T10:21:43;24.40;77.60
18321;DHT22;54904;54.350;18.664;2023-06-14T10:24:18;24.40;77.40
18321;DHT22;54904;54.350;18.664;2023-06-14T10:26:54;24.40;77.30
18321;DHT22;54904;54.350;18.664;2023-06-14T10:29:24;24.50;77.20
18321;DHT22;54904;54.350;18.664;2023-06-14T10:31:57;24.50;77.00
18321;DHT22;54904;54.350;18.664;2023-06-14T10:34:25;24.60;76.80
18321;DHT22;54904;54.350;18.664;2023-06-14T10:37:03;24.60;76.80
18321;DHT22;54904;54.350;18.664;2023-06-14T10:39:39;24.70;76.70
18321;DHT22;54904;54.350;18.664;2023-06-14T10:42:07;24.70;76.50
18321;DHT22;54904;54.350;18.664;2023-06-14T10:44:46;24.80;76.40
18321;DHT22;54904;54.350;18.664;2023-06-14T10:47:24;24.80;76.20
18321;DHT22;54904;54.350;18.664;2023-06-14T10:49:54;24.90;76.20
18321;DHT22;54904;54.350;18.664;2023-06-14T10:52:24;24.90;76.30
18321;DHT22;54904;54.350;18.664;2023-06-14T10:55:08;24.90;77.10
18321;DHT22;54904;54.350;18.664;2023-06-14T10:57:42;24.90;76.30
18321;DHT22;54904;54.350;18.664;2023-06-14T11:00:12;25.00;76.50
18321;DHT22;54904;54.350;18.664;2023-06-14T11:05:52;25.00;75.80
18321;DHT22;54904;54.350;18.664;2023-06-14T11:11:42;25.00;75.50
18321;DHT22;54904;54.350;18.664;2023-06-14T11:14:10;25.10;75.60
18321;DHT22;54904;54.350;18.664;2023-06-14T11:16:38;25.10;75.20
18321;DHT22;54904;54.350;18.664;2023-06-14T11:19:05;25.10;74.60
18321;DHT22;54904;54.350;18.664;2023-06-14T11:21:40;25.10;73.80
18321;DHT22;54904;54.350;18.664;2023-06-14T11:24:10;25.00;73.00
18321;DHT22;54904;54.350;18.664;2023-06-14T11:26:39;25.00;72.50
18321;DHT22;54904;54.350;18.664;2023-06-14T11:29:07;25.00;73.00
18321;DHT22;54904;54.350;18.664;2023-06-14T11:31:35;25.00;73.10
18321;DHT22;54904;54.350;18.664;2023-06-14T11:34:02;24.90;72.90
18321;DHT22;54904;54.350;18.664;2023-06-14T11:36:35;24.90;73.00
18321;DHT22;54904;54.350;18.664;2023-06-14T11:39:04;24.90;73.20
18321;DHT22;54904;54.350;18.664;2023-06-14T11:41:35;24.90;73.40
18321;DHT22;54904;54.350;18.664;2023-06-14T11:44:04;25.00;73.40
18321;DHT22;54904;54.350;18.664;2023-06-14T11:46:32;25.00;73.60
18321;DHT22;54904;54.350;18.664;2023-06-14T11:48:59;25.10;73.90
18321;DHT22;54904;54.350;18.664;2023-06-14T11:51:29;25.10;74.20
18321;DHT22;54904;54.350;18.664;2023-06-14T11:53:58;25.20;74.30
18321;DHT22;54904;54.350;18.664;2023-06-14T11:56:26;25.30;74.00
18321;DHT22;54904;54.350;18.664;2023-06-14T11:58:53;25.30;73.80
18321;DHT22;54904;54.350;18.664;2023-06-14T12:01:23;25.40;73.30
18321;DHT22;54904;54.350;18.664;2023-06-14T12:03:53;25.40;73.00
18321;DHT22;54904;54.350;18.664;2023-06-14T12:06:30;25.50;73.20
18321;DHT22;54904;54.350;18.664;2023-06-14T12:09:05;25.40;73.30
18321;DHT22;54904;54.350;18.664;2023-06-14T12:11:38;25.40;73.30
18321;DHT22;54904;54.350;18.664;2023-06-14T12:14:07;25.40;73.20
18321;DHT22;54904;54.350;18.664;2023-06-14T12:16:37;25.40;73.10
18321;DHT22;54904;54.350;18.664;2023-06-14T12:19:14;25.40;72.80
18321;DHT22;54904;54.350;18.664;2023-06-14T12:21:43;25.40;72.50
18321;DHT22;54904;54.350;18.664;2023-06-14T12:24:14;25.30;72.00
18321;DHT22;54904;54.350;18.664;2023-06-14T12:26:42;25.40;71.60
18321;DHT22;54904;54.350;18.664;2023-06-14T12:29:10;25.30;71.10
18321;DHT22;54904;54.350;18.664;2023-06-14T12:31:38;25.30;70.50
18321;DHT22;54904;54.350;18.664;2023-06-14T12:34:05;25.20;69.90
18321;DHT22;54904;54.350;18.664;2023-06-14T12:36:33;25.10;69.70
18321;DHT22;54904;54.350;18.664;2023-06-14T12:39:01;25.10;69.70
18321;DHT22;54904;54.350;18.664;2023-06-14T12:41:32;24.80;69.20
18321;DHT22;54904;54.350;18.664;2023-06-14T12:44:00;25.00;69.30
18321;DHT22;54904;54.350;18.664;2023-06-14T12:46:30;25.00;69.00
18321;DHT22;54904;54.350;18.664;2023-06-14T12:48:58;25.00;69.00
18321;DHT22;54904;54.350;18.664;2023-06-14T12:51:25;24.90;68.80
18321;DHT22;54904;54.350;18.664;2023-06-14T12:53:53;24.90;68.90
18321;DHT22;54904;54.350;18.664;2023-06-14T12:56:20;24.90;68.90
18321;DHT22;54904;54.350;18.664;2023-06-14T12:58:49;24.90;69.00
18321;DHT22;54904;54.350;18.664;2023-06-14T13:01:16;24.90;69.20
18321;DHT22;54904;54.350;18.664;2023-06-14T13:03:44;24.80;69.20
18321;DHT22;54904;54.350;18.664;2023-06-14T13:06:12;24.80;69.20
18321;DHT22;54904;54.350;18.664;2023-06-14T13:08:40;24.80;69.30
18321;DHT22;54904;54.350;18.664;2023-06-14T13:11:07;24.90;69.60
18321;DHT22;54904;54.350;18.664;2023-06-14T13:13:34;24.90;69.70
18321;DHT22;54904;54.350;18.664;2023-06-14T13:16:04;24.90;69.70
18321;DHT22;54904;54.350;18.664;2023-06-14T13:18:31;25.00;69.80
18321;DHT22;54904;54.350;18.664;2023-06-14T13:20:58;25.00;69.70
18321;DHT22;54904;54.350;18.664;2023-06-14T13:23:28;25.10;69.80
18321;DHT22;54904;54.350;18.664;2023-06-14T13:25:56;25.10;69.90
18321;DHT22;54904;54.350;18.664;2023-06-14T13:28:23;25.10;70.10
18321;DHT22;54904;54.350;18.664;2023-06-14T13:30:51;25.00;70.20
18321;DHT22;54904;54.350;18.664;2023-06-14T13:33:20;25.00;70.40
18321;DHT22;54904;54.350;18.664;2023-06-14T13:35:47;25.00;70.80
18321;DHT22;54904;54.350;18.664;2023-06-14T13:38:15;24.90;70.90
18321;DHT22;54904;54.350;18.664;2023-06-14T13:40:43;24.80;71.20
18321;DHT22;54904;54.350;18.664;2023-06-14T13:43:11;24.70;71.30
18321;DHT22;54904;54.350;18.664;2023-06-14T13:45:38;24.70;71.60
18321;DHT22;54904;54.350;18.664;2023-06-14T13:48:06;24.60;71.80
18321;DHT22;54904;54.350;18.664;2023-06-14T13:50:35;24.60;72.00
18321;DHT22;54904;54.350;18.664;2023-06-14T13:53:02;24.60;72.30
18321;DHT22;54904;54.350;18.664;2023-06-14T13:55:29;24.50;72.60
18321;DHT22;54904;54.350;18.664;2023-06-14T13:57:57;24.50;72.80
18321;DHT22;54904;54.350;18.664;2023-06-14T14:00:25;24.60;73.20
18321;DHT22;54904;54.350;18.664;2023-06-14T14:02:52;24.50;73.40
18321;DHT22;54904;54.350;18.664;2023-06-14T14:05:20;24.60;73.70
18321;DHT22;54904;54.350;18.664;2023-06-14T14:07:53;24.60;73.80
18321;DHT22;54904;54.350;18.664;2023-06-14T14:10:21;24.70;73.90
18321;DHT22;54904;54.350;18.664;2023-06-14T14:12:49;24.80;74.10
18321;DHT22;54904;54.350;18.664;2023-06-14T14:15:17;24.80;74.10
18321;DHT22;54904;54.350;18.664;2023-06-14T14:17:44;24.80;75.00
18321;DHT22;54904;54.350;18.664;2023-06-14T14:20:13;24.80;74.30
18321;DHT22;54904;54.350;18.664;2023-06-14T14:22:41;24.80;74.40
18321;DHT22;54904;54.350;18.664;2023-06-14T14:25:13;24.80;74.50
18321;DHT22;54904;54.350;18.664;2023-06-14T14:27:40;24.70;74.50
18321;DHT22;54904;54.350;18.664;2023-06-14T14:30:08;24.80;74.70
18321;DHT22;54904;54.350;18.664;2023-06-14T14:32:36;24.70;74.50
18321;DHT22;54904;54.350;18.664;2023-06-14T14:35:04;24.70;74.50
18321;DHT22;54904;54.350;18.664;2023-06-14T14:37:32;24.60;74.40
18321;DHT22;54904;54.350;18.664;2023-06-14T14:39:59;24.60;74.40
18321;DHT22;54904;54.350;18.664;2023-06-14T14:42:28;24.50;74.20
18321;DHT22;54904;54.350;18.664;2023-06-14T14:44:56;24.50;74.10
18321;DHT22;54904;54.350;18.664;2023-06-14T14:47:23;24.50;73.90
18321;DHT22;54904;54.350;18.664;2023-06-14T14:49:51;24.40;73.70
18321;DHT22;54904;54.350;18.664;2023-06-14T14:52:18;24.40;73.50
18321;DHT22;54904;54.350;18.664;2023-06-14T14:54:46;24.30;73.30
18321;DHT22;54904;54.350;18.664;2023-06-14T14:57:13;24.30;73.30
18321;DHT22;54904;54.350;18.664;2023-06-14T14:59:42;24.30;73.20
18321;DHT22;54904;54.350;18.664;2023-06-14T15:02:10;24.30;73.10
18321;DHT22;54904;54.350;18.664;2023-06-14T15:04:37;24.30;73.10
18321;DHT22;54904;54.350;18.664;2023-06-14T15:07:05;24.30;73.00
18321;DHT22;54904;54.350;18.664;2023-06-14T15:09:32;24.30;72.90
18321;DHT22;54904;54.350;18.664;2023-06-14T15:12:00;24.30;72.90
18321;DHT22;54904;54.350;18.664;2023-06-14T15:14:28;24.30;72.50
18321;DHT22;54904;54.350;18.664;2023-06-14T15:16:57;24.30;72.10
18321;DHT22;54904;54.350;18.664;2023-06-14T15:19:27;24.30;71.80
18321;DHT22;54904;54.350;18.664;2023-06-14T15:21:55;24.40;71.40
18321;DHT22;54904;54.350;18.664;2023-06-14T15:24:25;24.30;70.80
18321;DHT22;54904;54.350;18.664;2023-06-14T15:26:52;24.20;70.40
18321;DHT22;54904;54.350;18.664;2023-06-14T15:29:20;24.20;69.80
18321;DHT22;54904;54.350;18.664;2023-06-14T15:31:47;24.10;69.60
18321;DHT22;54904;54.350;18.664;2023-06-14T15:34:16;24.10;69.50
18321;DHT22;54904;54.350;18.664;2023-06-14T15:36:44;24.00;69.70
18321;DHT22;54904;54.350;18.664;2023-06-14T15:39:11;24.00;70.20
18321;DHT22;54904;54.350;18.664;2023-06-14T15:41:38;23.90;70.70
18321;DHT22;54904;54.350;18.664;2023-06-14T15:44:06;23.80;71.30
18321;DHT22;54904;54.350;18.664;2023-06-14T15:46:33;23.80;71.80
18321;DHT22;54904;54.350;18.664;2023-06-14T15:49:01;23.70;72.30
18321;DHT22;54904;54.350;18.664;2023-06-14T15:51:30;23.70;72.90
18321;DHT22;54904;54.350;18.664;2023-06-14T15:53:57;23.60;73.70
18321;DHT22;54904;54.350;18.664;2023-06-14T15:56:25;23.60;74.10
18321;DHT22;54904;54.350;18.664;2023-06-14T15:58:53;23.60;74.40
18321;DHT22;54904;54.350;18.664;2023-06-14T16:01:22;23.60;75.10
18321;DHT22;54904;54.350;18.664;2023-06-14T16:03:50;23.50;75.10
18321;DHT22;54904;54.350;18.664;2023-06-14T16:06:17;23.40;75.50
18321;DHT22;54904;54.350;18.664;2023-06-14T16:08:46;23.30;75.90
18321;DHT22;54904;54.350;18.664;2023-06-14T16:11:13;23.30;76.50
18321;DHT22;54904;54.350;18.664;2023-06-14T16:13:42;23.10;77.30
18321;DHT22;54904;54.350;18.664;2023-06-14T16:16:09;23.00;78.10
18321;DHT22;54904;54.350;18.664;2023-06-14T16:18:37;22.90;78.60
18321;DHT22;54904;54.350;18.664;2023-06-14T16:21:05;22.80;79.10
18321;DHT22;54904;54.350;18.664;2023-06-14T16:23:35;22.70;79.70